sensor_id;sensor_type;location;lat;lon;timestamp;temperature;humidity
15231;DHT22;32569;51.762;8.564;2023-07-30T00:02:15;18.30;99.90
15231;DHT22;32569;51.762;8.564;2023-07-30T00:04:43;18.30;99.90
15231;DHT22;32569;51.762;8.564;2023-07-30T00:07:10;18.30;99.90
15231;DHT22;32569;51.762;8.564;2023-07-30T00:09:36;18.30;99.90
15231;DHT22;32569;51.762;8.564;2023-07-30T00:12:06;18.30;99.90
15231;DHT22;32569;51.762;8.564;2023-07-30T00:14:33;18.30;99.90
15231;DHT22;32569;51.762;8.564;2023-07-30T00:17:00;18.30;99.90
15231;DHT22;32569;51.762;8.564;2023-07-30T00:19:29;18.30;99.90
15231;DHT22;32569;51.762;8.564;2023-07-30T00:21:56;18.30;99.90
15231;DHT22;32569;51.762;8.564;2023-07-30T00:24:23;18.30;99.90
15231;DHT22;32569;51.762;8.564;2023-07-30T00:26:49;18.30;99.90
15231;DHT22;32569;51.762;8.564;2023-07-30T00:29:17;18.40;99.90
15231;DHT22;32569;51.762;8.564;2023-07-30T00:31:45;18.30;99.90
15231;DHT22;32569;51.762;8.564;2023-07-30T00:34:27;18.30;99.90
15231;DHT22;32569;51.762;8.564;2023-07-30T00:36:53;18.30;99.90
15231;DHT22;32569;51.762;8.564;2023-07-30T00:39:20;18.40;99.90
15231;DHT22;32569;51.762;8.564;2023-07-30T00:41:47;18.40;99.90
15231;DHT22;32569;51.762;8.564;2023-07-30T00:44:14;18.40;99.90
15231;DHT22;32569;51.762;8.564;2023-07-30T00:46:42;18.40;99.90
15231;DHT22;32569;51.762;8.564;2023-07-30T00:49:12;18.40;99.90
15231;DHT22;32569;51.762;8.564;2023-07-30T00:51:40;18.30;99.90
15231;DHT22;32569;51.762;8.564;2023-07-30T00:54:07;18.30;99.90
15231;DHT22;32569;51.762;8.564;2023-07-30T00:56:34;18.20;99.90
15231;DHT22;32569;51.762;8.564;2023-07-30T00:59:01;18.20;99.90
15231;DHT22;32569;51.762;8.564;2023-07-30T01:01:28;18.20;99.90
15231;DHT22;32569;51.762;8.564;2023-07-30T01:03:57;18.20;99.90
15231;DHT22;32569;51.762;8.564;2023-07-30T01:06:23;18.20;99.90
15231;DHT22;32569;51.762;8.564;2023-07-30T01:08:50;18.10;99.90
15231;DHT22;32569;51.762;8.564;2023-07-30T01:11:18;18.10;99.90
15231;DHT22;32569;51.762;8.564;2023-07-30T01:13:45;18.10;99.90
15231;DHT22;32569;51.762;8.564;2023-07-30T01:16:14;18.10;99.90
15231;DHT22;32569;51.762;8.564;2023-07-30T01:18:44;18.10;99.90
15231;DHT22;32569;51.762;8.564;2023-07-30T01:21:15;18.00;99.90
15231;DHT22;32569;51.762;8.564;2023-07-30T01:23:42;17.90;99.90
15231;DHT22;32569;51.762;8.564;2023-07-30T01:26:11;17.90;99.90
15231;DHT22;32569;51.762;8.564;2023-07-30T01:28:43;17.90;99.90
15231;DHT22;32569;51.762;8.564;2023-07-30T01:31:13;17.90;99.90
15231;DHT22;32569;51.762;8.564;2023-07-30T01:33:41;17.90;99.90
15231;DHT22;32569;51.762;8.564;2023-07-30T01:36:08;17.80;99.90
15231;DHT22;32569;51.762;8.564;2023-07-30T01:38:38;17.80;99.90
15231;DHT22;32569;51.762;8.564;2023-07-30T01:41:09;17.80;99.90
15231;DHT22;32569;51.762;8.564;2023-07-30T01:43:35;17.80;99.90
15231;DHT22;32569;51.762;8.564;2023-07-30T01:46:02;17.70;99.90
15231;DHT22;32569;51.762;8.564;2023-07-30T01:48:29;17.70;99.90
15231;DHT22;32569;51.762;8.564;2023-07-30T01:50:55;17.60;99.90
15231;DHT22;32569;51.762;8.564;2023-07-30T01:53:22;17.60;99.90
15231;DHT22;32569;51.762;8.564;2023-07-30T01:55:50;17.60;99.90
15231;DHT22;32569;51.762;8.564;2023-07-30T01:58:17;17.60;99.90
15231;DHT22;32569;51.762;8.564;2023-07-30T02:00:44;17.50;99.90
15231;DHT22;32569;51.762;8.564;2023-07-30T02:03:12;17.50;99.90
15231;DHT22;32569;51.762;8.564;2023-07-30T02:05:39;17.50;99.90
15231;DHT22;32569;51.762;8.564;2023-07-30T02:08:05;17.40;99.90
15231;DHT22;32569;51.762;8.564;2023-07-30T02:10:32;17.40;99.90
15231;DHT22;32569;51.762;8.564;2023-07-30T02:13:00;17.30;99.90
15231;DHT22;32569;51.762;8.564;2023-07-30T02:15:27;17.40;99.90
15231;DHT22;32569;51.762;8.564;2023-07-30T02:17:54;17.30;99.90
15231;DHT22;32569;51.762;8.564;2023-07-30T02:20:20;17.20;99.90
15231;DHT22;32569;51.762;8.564;2023-07-30T02:22:47;17.20;99.90
15231;DHT22;32569;51.762;8.564;2023-07-30T02:25:14;17.20;99.90
15231;DHT22;32569;51.762;8.564;2023-07-30T02:27:41;17.10;99.90
15231;DHT22;32569;51.762;8.564;2023-07-30T02:30:12;17.10;99.90
15231;DHT22;32569;51.762;8.564;2023-07-30T02:32:39;17.10;99.90
15231;DHT22;32569;51.762;8.564;2023-07-30T02:35:06;17.00;99.90
15231;DHT22;32569;51.762;8.564;2023-07-30T02:37:33;17.00;99.90
15231;DHT22;32569;51.762;8.564;2023-07-30T02:39:59;16.90;99.90
15231;DHT22;32569;51.762;8.564;2023-07-30T02:42:28;17.00;99.90
15231;DHT22;32569;51.762;8.564;2023-07-30T02:44:54;17.00;99.90
15231;DHT22;32569;51.762;8.564;2023-07-30T02:47:22;16.90;99.90
15231;DHT22;32569;51.762;8.564;2023-07-30T02:49:52;16.90;99.90
15231;DHT22;32569;51.762;8.564;2023-07-30T02:52:19;16.80;99.90
15231;DHT22;32569;51.762;8.564;2023-07-30T02:54:45;16.80;99.90
15231;DHT22;32569;51.762;8.564;2023-07-30T02:57:12;16.80;99.90
15231;DHT22;32569;51.762;8.564;2023-07-30T02:59:39;16.80;99.90
15231;DHT22;32569;51.762;8.564;2023-07-30T03:02:06;16.70;99.90
15231;DHT22;32569;51.762;8.564;2023-07-30T03:04:34;16.70;99.90
15231;DHT22;32569;51.762;8.564;2023-07-30T03:07:01;16.70;99.90
15231;DHT22;32569;51.762;8.564;2023-07-30T03:09:35;16.70;99.90
15231;DHT22;32569;51.762;8.564;2023-07-30T03:12:02;16.70;99.90
15231;DHT22;32569;51.762;8.564;2023-07-30T03:14:29;16.70;99.90
15231;DHT22;32569;51.762;8.564;2023-07-30T03:16:56;16.60;99.90
15231;DHT22;32569;51.762;8.564;2023-07-30T03:19:22;16.60;99.90
15231;DHT22;32569;51.762;8.564;2023-07-30T03:21:53;16.60;99.90
15231;DHT22;32569;51.762;8.564;2023-07-30T03:24:20;16.60;99.90
15231;DHT22;32569;51.762;8.564;2023-07-30T03:26:47;16.50;99.90
15231;DHT22;32569;51.762;8.564;2023-07-30T03:29:14;16.40;99.90
15231;DHT22;32569;51.762;8.564;2023-07-30T03:31:41;16.40;99.90
15231;DHT22;32569;51.762;8.564;2023-07-30T03:34:08;16.30;99.90
15231;DHT22;32569;51.762;8.564;2023-07-30T03:36:35;16.30;99.90
15231;DHT22;32569;51.762;8.564;2023-07-30T03:39:03;16.40;99.90
15231;DHT22;32569;51.762;8.564;2023-07-30T03:41:29;16.30;99.90
15231;DHT22;32569;51.762;8.564;2023-07-30T03:43:56;16.20;99.90
15231;DHT22;32569;51.762;8.564;2023-07-30T03:46:23;16.30;99.90
15231;DHT22;32569;51.762;8.564;2023-07-30T03:48:49;16.20;99.90
15231;DHT22;32569;51.762;8.564;2023-07-30T03:51:16;16.10;99.90
15231;DHT22;32569;51.762;8.564;2023-07-30T03:53:43;16.10;99.90
15231;DHT22;32569;51.762;8.564;2023-07-30T03:56:11;16.10;99.90
15231;DHT22;32569;51.762;8.564;2023-07-30T03:58:37;16.10;99.90
15231;DHT22;32569;51.762;8.564;2023-07-30T04:01:07;16.10;99.90
15231;DHT22;32569;51.762;8.564;2023-07-30T04:03:34;16.10;99.90
15231;DHT22;32569;51.762;8.564;2023-07-30T04:06:01;16.10;99.90
15231;DHT22;32569;51.762;8.564;2023-07-30T04:08:27;16.00;99.90
15231;DHT22;32569;51.762;8.564;2023-07-30T04:10:54;16.00;99.90
15231;DHT22;32569;51.762;8.564;2023-07-30T04:13:22;16.00;99.90
15231;DHT22;32569;51.762;8.564;2023-07-30T04:15:52;16.00;99.90
15231;DHT22;32569;51.762;8.564;2023-07-30T04:18:18;16.00;99.90
15231;DHT22;32569;51.762;8.564;2023-07-30T04:20:45;16.00;99.90
15231;DHT22;32569;51.762;8.564;2023-07-30T04:23:12;16.10;99.90
15231;DHT22;32569;51.762;8.564;2023-07-30T04:25:39;16.00;99.90
15231;DHT22;32569;51.762;8.564;2023-07-30T04:28:05;16.00;99.90
15231;DHT22;32569;51.762;8.564;2023-07-30T04:30:33;16.00;99.90
15231;DHT22;32569;51.762;8.564;2023-07-30T04:33:09;16.10;99.90
15231;DHT22;32569;51.762;8.564;2023-07-30T04:35:36;16.10;99.90
15231;DHT22;32569;51.762;8.564;2023-07-30T04:38:03;16.10;99.90
15231;DHT22;32569;51.762;8.564;2023-07-30T04:40:29;16.10;99.90
15231;DHT22;32569;51.762;8.564;2023-07-30T04:42:56;16.20;99.90
15231;DHT22;32569;51.762;8.564;2023-07-30T04:45:23;16.30;99.90
15231;DHT22;32569;51.762;8.564;2023-07-30T04:47:51;16.40;99.90
15231;DHT22;32569;51.762;8.564;2023-07-30T04:50:17;16.40;99.90
15231;DHT22;32569;51.762;8.564;2023-07-30T04:52:44;16.60;99.90
15231;DHT22;32569;51.762;8.564;2023-07-30T04:55:17;16.90;99.90
15231;DHT22;32569;51.762;8.564;2023-07-30T04:57:43;17.10;99.90
15231;DHT22;32569;51.762;8.564;2023-07-30T05:00:11;17.30;99.90
15231;DHT22;32569;51.762;8.564;2023-07-30T05:02:38;17.50;99.90
15231;DHT22;32569;51.762;8.564;2023-07-30T05:05:07;17.80;99.90
15231;DHT22;32569;51.762;8.564;2023-07-30T05:07:36;17.90;99.90
15231;DHT22;32569;51.762;8.564;2023-07-30T05:10:05;18.00;99.90
15231;DHT22;32569;51.762;8.564;2023-07-30T05:12:35;18.00;99.90
15231;DHT22;32569;51.762;8.564;2023-07-30T05:15:02;18.00;99.90
15231;DHT22;32569;51.762;8.564;2023-07-30T05:17:29;18.10;99.90
15231;DHT22;32569;51.762;8.564;2023-07-30T05:19:59;18.10;99.90
15231;DHT22;32569;51.762;8.564;2023-07-30T05:22:27;18.20;99.90
15231;DHT22;32569;51.762;8.564;2023-07-30T05:24:53;18.30;99.90
15231;DHT22;32569;51.762;8.564;2023-07-30T05:27:20;18.20;99.90
15231;DHT22;32569;51.762;8.564;2023-07-30T05:29:47;18.20;99.90
15231;DHT22;32569;51.762;8.564;2023-07-30T05:32:14;18.30;99.90
15231;DHT22;32569;51.762;8.564;2023-07-30T05:34:43;18.30;99.90
15231;DHT22;32569;51.762;8.564;2023-07-30T05:37:10;18.50;99.90
15231;DHT22;32569;51.762;8.564;2023-07-30T05:39:38;18.60;99.90
15231;DHT22;32569;51.762;8.564;2023-07-30T05:42:08;18.80;99.90
15231;DHT22;32569;51.762;8.564;2023-07-30T05:44:35;18.90;99.90
15231;DHT22;32569;51.762;8.564;2023-07-30T05:47:01;18.90;99.90
15231;DHT22;32569;51.762;8.564;2023-07-30T05:49:34;18.80;99.90
15231;DHT22;32569;51.762;8.564;2023-07-30T05:52:04;18.90;99.90
15231;DHT22;32569;51.762;8.564;2023-07-30T05:54:31;19.00;99.90
15231;DHT22;32569;51.762;8.564;2023-07-30T05:56:59;19.10;99.90
15231;DHT22;32569;51.762;8.564;2023-07-30T05:59:26;19.30;99.90
15231;DHT22;32569;51.762;8.564;2023-07-30T06:01:53;19.40;99.90
15231;DHT22;32569;51.762;8.564;2023-07-30T06:04:19;19.50;99.90
15231;DHT22;32569;51.762;8.564;2023-07-30T06:06:46;19.60;99.90
15231;DHT22;32569;51.762;8.564;2023-07-30T06:09:13;19.60;99.90
15231;DHT22;32569;51.762;8.564;2023-07-30T06:11:39;19.70;99.90
15231;DHT22;32569;51.762;8.564;2023-07-30T06:14:07;19.80;99.90
15231;DHT22;32569;51.762;8.564;2023-07-30T06:16:34;19.90;99.90
15231;DHT22;32569;51.762;8.564;2023-07-30T06:19:01;19.80;99.90
15231;DHT22;32569;51.762;8.564;2023-07-30T06:21:27;20.00;99.90
15231;DHT22;32569;51.762;8.564;2023-07-30T06:23:54;20.20;99.90
15231;DHT22;32569;51.762;8.564;2023-07-30T06:26:24;20.20;99.90
15231;DHT22;32569;51.762;8.564;2023-07-30T06:28:51;20.10;99.90
15231;DHT22;32569;51.762;8.564;2023-07-30T06:31:19;20.30;99.90
15231;DHT22;32569;51.762;8.564;2023-07-30T06:33:45;20.30;99.90
15231;DHT22;32569;51.762;8.564;2023-07-30T06:36:15;20.20;99.90
15231;DHT22;32569;51.762;8.564;2023-07-30T06:38:42;20.10;99.90
15231;DHT22;32569;51.762;8.564;2023-07-30T06:41:09;19.80;99.90
15231;DHT22;32569;51.762;8.564;2023-07-30T06:43:38;19.60;99.90
15231;DHT22;32569;51.762;8.564;2023-07-30T06:46:05;19.40;99.90
15231;DHT22;32569;51.762;8.564;2023-07-30T06:48:33;19.20;99.90
15231;DHT22;32569;51.762;8.564;2023-07-30T06:51:00;19.10;99.90
15231;DHT22;32569;51.762;8.564;2023-07-30T06:53:26;19.00;99.90
15231;DHT22;32569;51.762;8.564;2023-07-30T06:55:53;18.90;99.90
15231;DHT22;32569;51.762;8.564;2023-07-30T06:58:20;18.90;99.90
15231;DHT22;32569;51.762;8.564;2023-07-30T07:00:46;18.90;99.90
15231;DHT22;32569;51.762;8.564;2023-07-30T07:03:13;18.80;99.90
15231;DHT22;32569;51.762;8.564;2023-07-30T07:05:41;18.90;99.90
15231;DHT22;32569;51.762;8.564;2023-07-30T07:08:08;18.90;99.90
15231;DHT22;32569;51.762;8.564;2023-07-30T07:10:34;19.00;99.90
15231;DHT22;32569;51.762;8.564;2023-07-30T07:13:01;18.90;99.90
15231;DHT22;32569;51.762;8.564;2023-07-30T07:15:28;18.90;99.90
15231;DHT22;32569;51.762;8.564;2023-07-30T07:17:54;18.80;99.90
15231;DHT22;32569;51.762;8.564;2023-07-30T07:20:21;18.70;99.90
15231;DHT22;32569;51.762;8.564;2023-07-30T07:22:49;18.70;99.90
15231;DHT22;32569;51.762;8.564;2023-07-30T07:25:16;18.80;99.90
15231;DHT22;32569;51.762;8.564;2023-07-30T07:27:47;18.60;99.90
15231;DHT22;32569;51.762;8.564;2023-07-30T07:30:14;18.50;99.90
15231;DHT22;32569;51.762;8.564;2023-07-30T07:32:41;18.40;99.90
15231;DHT22;32569;51.762;8.564;2023-07-30T07:35:08;18.30;99.90
15231;DHT22;32569;51.762;8.564;2023-07-30T07:37:35;18.20;99.90
15231;DHT22;32569;51.762;8.564;2023-07-30T07:40:03;18.20;99.90
15231;DHT22;32569;51.762;8.564;2023-07-30T07:42:30;18.20;99.90
15231;DHT22;32569;51.762;8.564;2023-07-30T07:44:57;18.20;99.90
15231;DHT22;32569;51.762;8.564;2023-07-30T07:47:25;18.30;99.90
15231;DHT22;32569;51.762;8.564;2023-07-30T07:49:51;18.20;99.90
15231;DHT22;32569;51.762;8.564;2023-07-30T07:52:18;18.10;99.90
15231;DHT22;32569;51.762;8.564;2023-07-30T07:54:46;18.10;99.90
15231;DHT22;32569;51.762;8.564;2023-07-30T07:57:14;18.20;99.90
15231;DHT22;32569;51.762;8.564;2023-07-30T07:59:41;18.30;99.90
15231;DHT22;32569;51.762;8.564;2023-07-30T08:02:10;18.20;99.90
15231;DHT22;32569;51.762;8.564;2023-07-30T08:04:37;18.30;99.90
15231;DHT22;32569;51.762;8.564;2023-07-30T08:07:03;18.30;99.90
15231;DHT22;32569;51.762;8.564;2023-07-30T08:09:30;18.40;99.90
15231;DHT22;32569;51.762;8.564;2023-07-30T08:11:57;18.40;99.90
15231;DHT22;32569;51.762;8.564;2023-07-30T08:14:25;18.60;99.90
15231;DHT22;32569;51.762;8.564;2023-07-30T08:16:52;18.70;99.90
15231;DHT22;32569;51.762;8.564;2023-07-30T08:19:20;18.70;99.90
15231;DHT22;32569;51.762;8.564;2023-07-30T08:21:47;18.80;99.90
15231;DHT22;32569;51.762;8.564;2023-07-30T08:24:13;18.90;99.90
15231;DHT22;32569;51.762;8.564;2023-07-30T08:26:40;18.90;99.90
15231;DHT22;32569;51.762;8.564;2023-07-30T08:29:07;18.80;99.90
15231;DHT22;32569;51.762;8.564;2023-07-30T08:31:37;18.80;99.90
15231;DHT22;32569;51.762;8.564;2023-07-30T08:34:06;18.60;99.90
15231;DHT22;32569;51.762;8.564;2023-07-30T08:36:33;18.50;99.90
15231;DHT22;32569;51.762;8.564;2023-07-30T08:39:01;18.40;99.90
15231;DHT22;32569;51.762;8.564;2023-07-30T08:41:29;18.40;99.90
15231;DHT22;32569;51.762;8.564;2023-07-30T08:43:56;18.40;99.90
15231;DHT22;32569;51.762;8.564;2023-07-30T08:46:23;18.40;99.90
15231;DHT22;32569;51.762;8.564;2023-07-30T08:48:51;18.50;99.90
15231;DHT22;32569;51.762;8.564;2023-07-30T08:51:19;18.60;99.90
15231;DHT22;32569;51.762;8.564;2023-07-30T08:53:47;18.70;99.90
15231;DHT22;32569;51.762;8.564;2023-07-30T08:56:15;18.80;99.90
15231;DHT22;32569;51.762;8.564;2023-07-30T08:58:42;19.00;99.90
15231;DHT22;32569;51.762;8.564;2023-07-30T09:01:11;19.10;99.90
15231;DHT22;32569;51.762;8.564;2023-07-30T09:03:39;19.30;99.90
15231;DHT22;32569;51.762;8.564;2023-07-30T09:06:08;19.40;99.90
15231;DHT22;32569;51.762;8.564;2023-07-30T09:08:34;19.30;99.90
15231;DHT22;32569;51.762;8.564;2023-07-30T09:11:07;19.30;99.90
15231;DHT22;32569;51.762;8.564;2023-07-30T09:13:37;19.10;99.90
15231;DHT22;32569;51.762;8.564;2023-07-30T09:16:08;18.90;99.90
15231;DHT22;32569;51.762;8.564;2023-07-30T09:18:40;18.80;99.90
15231;DHT22;32569;51.762;8.564;2023-07-30T09:21:10;18.80;99.90
15231;DHT22;32569;51.762;8.564;2023-07-30T09:23:40;18.70;99.90
15231;DHT22;32569;51.762;8.564;2023-07-30T09:26:07;18.40;99.90
15231;DHT22;32569;51.762;8.564;2023-07-30T09:28:34;18.30;99.90
15231;DHT22;32569;51.762;8.564;2023-07-30T09:31:02;18.20;99.90
15231;DHT22;32569;51.762;8.564;2023-07-30T09:33:28;18.10;99.90
15231;DHT22;32569;51.762;8.564;2023-07-30T09:35:55;18.10;99.90
15231;DHT22;32569;51.762;8.564;2023-07-30T09:38:26;18.00;99.90
15231;DHT22;32569;51.762;8.564;2023-07-30T09:41:00;17.90;99.90
15231;DHT22;32569;51.762;8.564;2023-07-30T09:43:28;18.00;99.90
15231;DHT22;32569;51.762;8.564;2023-07-30T09:46:01;17.90;99.90
15231;DHT22;32569;51.762;8.564;2023-07-30T09:48:29;17.90;99.90
15231;DHT22;32569;51.762;8.564;2023-07-30T09:50:57;17.90;99.90
15231;DHT22;32569;51.762;8.564;2023-07-30T09:53:26;17.90;99.90
15231;DHT22;32569;51.762;8.564;2023-07-30T09:55:54;17.90;99.90
15231;DHT22;32569;51.762;8.564;2023-07-30T09:58:21;17.90;99.90
15231;DHT22;32569;51.762;8.564;2023-07-30T10:00:48;17.90;99.90
15231;DHT22;32569;51.762;8.564;2023-07-30T10:03:16;17.80;99.90
15231;DHT22;32569;51.762;8.564;2023-07-30T10:05:44;17.80;99.90
15231;DHT22;32569;51.762;8.564;2023-07-30T10:08:16;17.90;99.90
15231;DHT22;32569;51.762;8.564;2023-07-30T10:10:50;17.90;99.90
15231;DHT22;32569;51.762;8.564;2023-07-30T10:13:18;17.90;99.90
15231;DHT22;32569;51.762;8.564;2023-07-30T10:15:46;17.70;99.90
15231;DHT22;32569;51.762;8.564;2023-07-30T10:18:13;17.90;99.90
15231;DHT22;32569;51.762;8.564;2023-07-30T10:20:40;18.20;99.90
15231;DHT22;32569;51.762;8.564;2023-07-30T10:23:07;18.40;99.90
15231;DHT22;32569;51.762;8.564;2023-07-30T10:25:45;18.60;99.90
15231;DHT22;32569;51.762;8.564;2023-07-30T10:28:28;18.60;99.90
15231;DHT22;32569;51.762;8.564;2023-07-30T10:31:00;18.80;99.90
15231;DHT22;32569;51.762;8.564;2023-07-30T10:33:44;19.00;99.90
15231;DHT22;32569;51.762;8.564;2023-07-30T10:36:11;19.00;99.90
15231;DHT22;32569;51.762;8.564;2023-07-30T10:38:39;19.20;99.90
15231;DHT22;32569;51.762;8.564;2023-07-30T10:41:09;19.30;99.90
15231;DHT22;32569;51.762;8.564;2023-07-30T10:43:40;19.50;99.90
15231;DHT22;32569;51.762;8.564;2023-07-30T10:46:08;19.50;99.90
15231;DHT22;32569;51.762;8.564;2023-07-30T10:48:37;19.70;99.90
15231;DHT22;32569;51.762;8.564;2023-07-30T10:51:06;19.90;99.90
15231;DHT22;32569;51.762;8.564;2023-07-30T10:53:33;20.00;99.90
15231;DHT22;32569;51.762;8.564;2023-07-30T10:56:03;20.00;99.90
15231;DHT22;32569;51.762;8.564;2023-07-30T10:58:31;20.00;99.90
15231;DHT22;32569;51.762;8.564;2023-07-30T11:01:02;20.10;99.90
15231;DHT22;32569;51.762;8.564;2023-07-30T11:03:29;20.30;99.90
15231;DHT22;32569;51.762;8.564;2023-07-30T11:05:58;20.30;99.90
15231;DHT22;32569;51.762;8.564;2023-07-30T11:08:35;20.30;99.90
15231;DHT22;32569;51.762;8.564;2023-07-30T11:11:03;20.40;99.90
15231;DHT22;32569;51.762;8.564;2023-07-30T11:13:35;20.60;99.90
15231;DHT22;32569;51.762;8.564;2023-07-30T11:16:04;20.70;99.90
15231;DHT22;32569;51.762;8.564;2023-07-30T11:18:31;20.50;99.90
15231;DHT22;32569;51.762;8.564;2023-07-30T11:21:03;20.50;99.90
15231;DHT22;32569;51.762;8.564;2023-07-30T11:23:30;20.70;99.90
15231;DHT22;32569;51.762;8.564;2023-07-30T11:25:56;20.90;99.90
15231;DHT22;32569;51.762;8.564;2023-07-30T11:28:34;20.90;99.90
15231;DHT22;32569;51.762;8.564;2023-07-30T11:31:04;20.70;98.80
15231;DHT22;32569;51.762;8.564;2023-07-30T11:33:31;20.60;99.70
15231;DHT22;32569;51.762;8.564;2023-07-30T11:36:00;20.50;99.50
15231;DHT22;32569;51.762;8.564;2023-07-30T11:38:28;20.40;99.20
15231;DHT22;32569;51.762;8.564;2023-07-30T11:40:56;20.30;98.90
15231;DHT22;32569;51.762;8.564;2023-07-30T11:43:24;20.30;99.90
15231;DHT22;32569;51.762;8.564;2023-07-30T11:46:07;20.40;99.90
15231;DHT22;32569;51.762;8.564;2023-07-30T11:48:50;20.50;99.50
15231;DHT22;32569;51.762;8.564;2023-07-30T11:51:21;20.60;98.50
15231;DHT22;32569;51.762;8.564;2023-07-30T11:53:50;20.80;97.60
15231;DHT22;32569;51.762;8.564;2023-07-30T11:56:19;20.80;97.60
15231;DHT22;32569;51.762;8.564;2023-07-30T11:58:47;20.90;98.40
15231;DHT22;32569;51.762;8.564;2023-07-30T12:01:18;21.00;98.20
15231;DHT22;32569;51.762;8.564;2023-07-30T12:03:47;21.00;97.50
15231;DHT22;32569;51.762;8.564;2023-07-30T12:06:14;21.10;97.20
15231;DHT22;32569;51.762;8.564;2023-07-30T12:08:49;21.20;97.10
15231;DHT22;32569;51.762;8.564;2023-07-30T12:11:55;21.20;97.30
15231;DHT22;32569;51.762;8.564;2023-07-30T12:14:25;21.30;95.50
15231;DHT22;32569;51.762;8.564;2023-07-30T12:16:57;21.30;96.20
15231;DHT22;32569;51.762;8.564;2023-07-30T12:19:23;21.30;96.30
15231;DHT22;32569;51.762;8.564;2023-07-30T12:21:50;21.40;95.10
15231;DHT22;32569;51.762;8.564;2023-07-30T12:24:17;21.40;95.40
15231;DHT22;32569;51.762;8.564;2023-07-30T12:26:44;21.40;95.20
15231;DHT22;32569;51.762;8.564;2023-07-30T12:29:11;21.40;96.00
15231;DHT22;32569;51.762;8.564;2023-07-30T12:31:37;21.50;95.20
15231;DHT22;32569;51.762;8.564;2023-07-30T12:34:06;21.50;95.20
15231;DHT22;32569;51.762;8.564;2023-07-30T12:36:32;21.50;95.70
15231;DHT22;32569;51.762;8.564;2023-07-30T12:38:59;21.70;95.70
15231;DHT22;32569;51.762;8.564;2023-07-30T12:41:42;21.90;96.10
15231;DHT22;32569;51.762;8.564;2023-07-30T12:44:17;21.90;94.90
15231;DHT22;32569;51.762;8.564;2023-07-30T12:46:46;22.00;95.20
15231;DHT22;32569;51.762;8.564;2023-07-30T12:52:34;22.20;94.60
15231;DHT22;32569;51.762;8.564;2023-07-30T12:55:06;22.40;94.30
15231;DHT22;32569;51.762;8.564;2023-07-30T12:57:36;22.50;94.10
15231;DHT22;32569;51.762;8.564;2023-07-30T13:00:03;22.50;94.30
15231;DHT22;32569;51.762;8.564;2023-07-30T13:02:43;22.30;93.40
15231;DHT22;32569;51.762;8.564;2023-07-30T13:05:12;22.10;94.20
15231;DHT22;32569;51.762;8.564;2023-07-30T13:07:44;22.20;94.30
15231;DHT22;32569;51.762;8.564;2023-07-30T13:10:11;22.20;93.90
15231;DHT22;32569;51.762;8.564;2023-07-30T13:12:41;22.10;93.90
15231;DHT22;32569;51.762;8.564;2023-07-30T13:15:08;22.10;94.50
15231;DHT22;32569;51.762;8.564;2023-07-30T13:17:46;22.10;94.40
15231;DHT22;32569;51.762;8.564;2023-07-30T13:20:54;22.10;94.10
15231;DHT22;32569;51.762;8.564;2023-07-30T13:23:25;22.00;94.20
15231;DHT22;32569;51.762;8.564;2023-07-30T13:25:52;21.60;93.70
15231;DHT22;32569;51.762;8.564;2023-07-30T13:28:19;21.40;94.40
15231;DHT22;32569;51.762;8.564;2023-07-30T13:30:45;21.40;94.50
15231;DHT22;32569;51.762;8.564;2023-07-30T13:33:12;21.10;94.30
15231;DHT22;32569;51.762;8.564;2023-07-30T13:35:39;21.00;94.60
15231;DHT22;32569;51.762;8.564;2023-07-30T13:38:06;20.80;94.70
15231;DHT22;32569;51.762;8.564;2023-07-30T13:40:34;20.80;94.90
15231;DHT22;32569;51.762;8.564;2023-07-30T13:43:01;20.70;95.20
15231;DHT22;32569;51.762;8.564;2023-07-30T13:45:27;20.70;95.30
15231;DHT22;32569;51.762;8.564;2023-07-30T13:47:55;20.60;95.30
15231;DHT22;32569;51.762;8.564;2023-07-30T13:50:21;20.60;95.80
15231;DHT22;32569;51.762;8.564;2023-07-30T13:52:48;20.60;95.80
15231;DHT22;32569;51.762;8.564;2023-07-30T13:55:15;20.50;96.30
15231;DHT22;32569;51.762;8.564;2023-07-30T13:57:43;20.40;96.90
15231;DHT22;32569;51.762;8.564;2023-07-30T14:00:11;19.80;99.00
15231;DHT22;32569;51.762;8.564;2023-07-30T14:02:38;19.30;99.90
15231;DHT22;32569;51.762;8.564;2023-07-30T14:05:05;19.00;99.90
15231;DHT22;32569;51.762;8.564;2023-07-30T14:07:33;18.50;99.90
15231;DHT22;32569;51.762;8.564;2023-07-30T14:10:00;18.10;99.90
15231;DHT22;32569;51.762;8.564;2023-07-30T14:12:27;17.90;99.90
15231;DHT22;32569;51.762;8.564;2023-07-30T14:14:55;17.70;99.90
15231;DHT22;32569;51.762;8.564;2023-07-30T14:17:22;17.80;99.90
15231;DHT22;32569;51.762;8.564;2023-07-30T14:19:49;17.80;99.90
15231;DHT22;32569;51.762;8.564;2023-07-30T14:22:15;17.70;99.90
15231;DHT22;32569;51.762;8.564;2023-07-30T14:24:42;17.70;99.90
15231;DHT22;32569;51.762;8.564;2023-07-30T14:27:10;18.10;99.90
15231;DHT22;32569;51.762;8.564;2023-07-30T14:29:37;18.40;99.90
15231;DHT22;32569;51.762;8.564;2023-07-30T14:32:06;18.40;99.90
15231;DHT22;32569;51.762;8.564;2023-07-30T14:34:33;18.30;99.90
15231;DHT22;32569;51.762;8.564;2023-07-30T14:36:59;18.50;99.90
15231;DHT22;32569;51.762;8.564;2023-07-30T14:39:26;18.60;99.90
15231;DHT22;32569;51.762;8.564;2023-07-30T14:41:53;19.10;99.90
15231;DHT22;32569;51.762;8.564;2023-07-30T14:44:20;19.40;99.90
15231;DHT22;32569;51.762;8.564;2023-07-30T14:46:47;19.70;99.90
15231;DHT22;32569;51.762;8.564;2023-07-30T14:49:15;20.00;99.90
15231;DHT22;32569;51.762;8.564;2023-07-30T14:51:41;20.10;99.90
15231;DHT22;32569;51.762;8.564;2023-07-30T14:54:08;20.00;99.90
15231;DHT22;32569;51.762;8.564;2023-07-30T14:56:35;20.10;99.90
15231;DHT22;32569;51.762;8.564;2023-07-30T14:59:02;20.10;99.90
15231;DHT22;32569;51.762;8.564;2023-07-30T15:01:30;19.90;99.90
15231;DHT22;32569;51.762;8.564;2023-07-30T15:03:57;19.80;99.90
15231;DHT22;32569;51.762;8.564;2023-07-30T15:06:25;19.70;99.90
15231;DHT22;32569;51.762;8.564;2023-07-30T15:08:53;19.60;99.90
15231;DHT22;32569;51.762;8.564;2023-07-30T15:11:19;19.70;99.90
15231;DHT22;32569;51.762;8.564;2023-07-30T15:13:46;19.80;99.90
15231;DHT22;32569;51.762;8.564;2023-07-30T15:16:13;20.10;99.90
15231;DHT22;32569;51.762;8.564;2023-07-30T15:18:41;20.30;99.90
15231;DHT22;32569;51.762;8.564;2023-07-30T15:21:09;20.40;99.90
15231;DHT22;32569;51.762;8.564;2023-07-30T15:23:37;20.50;99.90
15231;DHT22;32569;51.762;8.564;2023-07-30T15:26:04;20.70;99.90
15231;DHT22;32569;51.762;8.564;2023-07-30T15:28:31;20.70;99.90
15231;DHT22;32569;51.762;8.564;2023-07-30T15:30:59;20.60;99.90
15231;DHT22;32569;51.762;8.564;2023-07-30T15:33:29;20.60;99.90
15231;DHT22;32569;51.762;8.564;2023-07-30T15:35:55;20.60;99.90
15231;DHT22;32569;51.762;8.564;2023-07-30T15:38:22;20.60;99.90
15231;DHT22;32569;51.762;8.564;2023-07-30T15:40:50;20.70;99.40